createdAt,value
2022-10-18T00:00:06.795Z,100941.34
2022-10-18T00:02:33.889Z,100934.28
2022-10-18T00:05:00.856Z,100933.41
2022-10-18T00:07:27.497Z,100930.78
2022-10-18T00:09:54.183Z,100929.88
2022-10-18T00:12:20.912Z,100936.91
2022-10-18T00:14:50.916Z,100943.06
2022-10-18T00:17:17.728Z,100938.56
2022-10-18T00:19:44.482Z,100937.59
2022-10-18T00:22:11.078Z,100934.00
2022-10-18T00:24:37.680Z,100944.56
2022-10-18T00:27:04.352Z,100934.84
2022-10-18T00:29:31.383Z,100939.25
2022-10-18T00:31:57.955Z,100935.72
2022-10-18T00:34:24.691Z,100933.94
2022-10-18T00:36:51.320Z,100934.81
2022-10-18T00:39:20.261Z,100933.00
2022-10-18T00:41:47.729Z,100926.78
2022-10-18T00:44:14.308Z,100930.25
2022-10-18T00:46:43.778Z,100924.94
2022-10-18T00:49:21.817Z,100916.97
2022-10-18T00:51:52.521Z,100917.78
2022-10-18T00:54:20.878Z,100927.38
2022-10-18T00:56:47.516Z,100922.06
2022-10-18T00:59:16.317Z,100924.56
2022-10-18T01:01:43.291Z,100927.97
2022-10-18T01:04:10.021Z,100922.72
2022-10-18T01:07:02.581Z,100921.06
2022-10-18T01:09:38.929Z,100914.97
2022-10-18T01:12:30.534Z,100912.34
2022-10-18T01:15:10.651Z,100908.00
2022-10-18T01:17:46.735Z,100910.59
2022-10-18T01:20:13.177Z,100908.78
2022-10-18T01:22:45.330Z,100908.69
2022-10-18T01:25:34.451Z,100905.13
2022-10-18T01:28:15.878Z,100904.25
2022-10-18T01:31:12.214Z,100900.72
2022-10-18T01:33:51.275Z,100903.38
2022-10-18T01:36:23.670Z,100908.63
2022-10-18T01:38:53.582Z,100898.84
2022-10-18T01:41:24.022Z,100900.53
2022-10-18T01:43:54.582Z,100893.53
2022-10-18T01:46:24.105Z,100903.25
2022-10-18T01:48:52.710Z,100900.59
2022-10-18T01:51:31.635Z,100893.53
2022-10-18T01:53:58.663Z,100896.16
2022-10-18T01:56:50.823Z,100891.72
2022-10-18T01:59:55.683Z,100893.41
2022-10-18T02:02:47.157Z,100894.22
2022-10-18T02:05:19.420Z,100889.03
2022-10-18T02:08:23.397Z,100894.28
2022-10-18T02:11:12.546Z,100892.50
2022-10-18T02:13:44.584Z,100889.88
2022-10-18T02:16:16.576Z,100890.75
2022-10-18T02:18:52.067Z,100890.78
2022-10-18T02:21:20.611Z,100893.38
2022-10-18T02:23:47.460Z,100892.56
2022-10-18T02:26:15.986Z,100879.38
2022-10-18T02:28:43.212Z,100886.38
2022-10-18T02:31:12.920Z,100891.56
2022-10-18T02:33:53.348Z,100887.16
2022-10-18T02:36:34.981Z,100886.28
2022-10-18T02:39:11.789Z,100888.03
2022-10-18T02:41:38.555Z,100893.19
2022-10-18T02:44:05.150Z,100890.53
2022-10-18T02:46:31.909Z,100886.09
2022-10-18T02:48:58.483Z,100897.53
2022-10-18T02:51:25.357Z,100893.19
2022-10-18T02:53:51.972Z,100897.56
2022-10-18T02:56:18.744Z,100901.09
2022-10-18T02:58:45.340Z,100897.66
2022-10-18T03:01:11.945Z,100902.94
2022-10-18T03:03:38.611Z,100905.56
2022-10-18T03:06:05.871Z,100901.97
2022-10-18T03:08:32.464Z,100905.41
2022-10-18T03:10:59.037Z,100910.66
2022-10-18T03:13:25.671Z,100903.63
2022-10-18T03:15:52.263Z,100905.41
2022-10-18T03:18:18.878Z,100916.75
2022-10-18T03:20:45.471Z,100915.91
2022-10-18T03:23:12.118Z,100914.06
2022-10-18T03:25:40.554Z,100915.75
2022-10-18T03:28:09.474Z,100918.44
2022-10-18T03:30:36.061Z,100912.28
2022-10-18T03:33:02.614Z,100918.47
2022-10-18T03:35:29.219Z,100922.00
2022-10-18T03:37:55.803Z,100931.69
2022-10-18T03:40:22.723Z,100922.03
2022-10-18T03:42:49.309Z,100923.69
2022-10-18T03:45:15.922Z,100925.41
2022-10-18T03:47:42.483Z,100924.47
2022-10-18T03:50:09.367Z,100930.59
2022-10-18T03:52:36.065Z,100923.56
2022-10-18T03:55:05.193Z,100933.16
2022-10-18T03:57:31.755Z,100935.69
2022-10-18T03:59:58.323Z,100935.56
2022-10-18T04:02:25.991Z,100939.81
2022-10-18T04:04:52.792Z,100933.59
2022-10-18T04:07:20.725Z,100930.94
2022-10-18T04:09:48.670Z,100938.00
2022-10-18T04:12:15.317Z,100936.19
2022-10-18T04:14:41.873Z,100933.53
2022-10-18T04:17:08.611Z,100934.34
2022-10-18T04:19:35.226Z,100941.38
2022-10-18T04:22:01.839Z,100937.81
2022-10-18T04:24:29.820Z,100936.97
2022-10-18T04:26:56.394Z,100946.56
2022-10-18T04:29:24.520Z,100935.19
2022-10-18T04:31:51.122Z,100946.53
2022-10-18T04:34:17.697Z,100943.84
2022-10-18T04:36:45.518Z,100938.56
2022-10-18T04:39:12.196Z,100937.69
2022-10-18T04:41:38.925Z,100937.66
2022-10-18T04:44:05.685Z,100937.63
2022-10-18T04:46:32.240Z,100942.00
2022-10-18T04:49:01.372Z,100941.16
2022-10-18T04:51:29.679Z,100937.66
2022-10-18T04:53:56.591Z,100942.91
2022-10-18T04:56:23.350Z,100936.75
2022-10-18T04:58:50.003Z,100937.59
2022-10-18T05:01:17.491Z,100939.38
2022-10-18T05:03:44.221Z,100935.88
2022-10-18T05:06:11.197Z,100935.88
2022-10-18T05:08:38.670Z,100931.50
2022-10-18T05:11:05.464Z,100932.41
2022-10-18T05:13:32.120Z,100928.06
2022-10-18T05:16:00.329Z,100932.44
2022-10-18T05:18:27.528Z,100930.59
2022-10-18T05:20:54.123Z,100932.31
2022-10-18T05:23:20.819Z,100932.31
2022-10-18T05:25:47.575Z,100927.03
2022-10-18T05:28:38.861Z,100925.25
2022-10-18T05:31:02.836Z,100926.16
2022-10-18T05:33:29.873Z,100927.09
2022-10-18T05:35:56.932Z,100921.97
2022-10-18T05:38:23.631Z,100922.00
2022-10-18T05:40:50.335Z,100923.84
2022-10-18T05:43:17.953Z,100927.41
2022-10-18T05:45:49.536Z,100924.00
2022-10-18T05:48:16.175Z,100928.56
2022-10-18T05:50:43.218Z,100925.22
2022-10-18T05:53:12.368Z,100930.53
2022-10-18T05:55:45.124Z,100930.66
2022-10-18T05:58:11.759Z,100930.75
2022-10-18T06:00:38.801Z,100935.28
2022-10-18T06:03:05.512Z,100924.88
2022-10-18T06:05:32.172Z,100934.66
2022-10-18T06:07:58.867Z,100942.50
2022-10-18T06:10:25.755Z,100938.09
2022-10-18T06:12:52.417Z,100942.56
2022-10-18T06:15:19.068Z,100948.91
2022-10-18T06:17:45.687Z,100940.34
2022-10-18T06:20:12.330Z,100948.31
2022-10-18T06:22:38.962Z,100951.19
2022-10-18T06:25:06.096Z,100946.81
2022-10-18T06:27:35.307Z,100952.25
2022-10-18T06:30:02.152Z,100955.91
2022-10-18T06:32:28.877Z,100958.59
2022-10-18T06:34:55.494Z,100948.84
2022-10-18T06:37:22.165Z,100946.34
2022-10-18T06:39:48.753Z,100949.91
2022-10-18T06:42:19.075Z,100945.59
2022-10-18T06:44:48.454Z,100957.13
2022-10-18T06:47:15.086Z,100957.16
2022-10-18T06:49:41.716Z,100958.94
2022-10-18T06:52:08.450Z,100958.09
2022-10-18T06:54:35.170Z,100951.03
2022-10-18T06:57:02.814Z,100955.31
2022-10-18T06:59:31.301Z,100962.22
2022-10-18T07:01:58.349Z,100960.16
2022-10-18T07:04:29.485Z,100965.97
2022-10-18T07:06:56.207Z,100958.69
2022-10-18T07:09:23.008Z,100960.72
2022-10-18T07:11:49.649Z,100961.22
2022-10-18T07:14:16.627Z,100975.03
2022-10-18T07:16:43.257Z,100972.91
2022-10-18T07:19:09.902Z,100963.72
2022-10-18T07:21:36.682Z,100972.25
2022-10-18T07:24:03.379Z,100972.81
2022-10-18T07:26:34.353Z,100973.44
2022-10-18T07:29:10.782Z,100981.88
2022-10-18T07:31:38.861Z,100977.44
2022-10-18T07:34:06.404Z,100988.66
2022-10-18T07:36:33.239Z,100985.22
2022-10-18T07:38:59.908Z,100985.78
2022-10-18T07:41:26.817Z,100987.00
2022-10-18T07:43:54.354Z,100994.03
2022-10-18T07:46:22.387Z,100997.66
2022-10-18T07:48:49.875Z,100995.47
2022-10-18T07:51:17.258Z,100995.34
2022-10-18T07:53:43.888Z,100994.91
2022-10-18T07:56:18.223Z,100985.25
2022-10-18T07:58:46.086Z,100995.00
2022-10-18T08:01:14.025Z,100984.00
2022-10-18T08:03:42.026Z,100990.59
2022-10-18T08:06:11.321Z,100988.59
2022-10-18T08:08:39.393Z,100980.03
2022-10-18T08:11:18.599Z,100987.91
2022-10-18T08:13:45.461Z,100975.78
2022-10-18T08:16:17.936Z,100976.06
2022-10-18T08:18:44.805Z,100966.56
2022-10-18T08:21:13.683Z,100969.56
2022-10-18T08:23:41.205Z,100967.72
2022-10-18T08:26:12.923Z,100958.75
2022-10-18T08:28:40.483Z,100959.28
2022-10-18T08:31:14.539Z,100959.44
2022-10-18T08:33:41.195Z,100954.84
2022-10-18T08:36:10.678Z,100946.91
2022-10-18T08:38:39.174Z,100944.66
2022-10-18T08:41:27.009Z,100935.41
2022-10-18T08:44:13.893Z,100936.13
2022-10-18T08:46:45.798Z,100942.59
2022-10-18T08:49:24.130Z,100941.03
2022-10-18T08:51:51.927Z,100935.25
2022-10-18T08:54:37.373Z,100922.78
2022-10-18T08:57:14.971Z,100926.97
2022-10-18T08:59:42.194Z,100922.75
2022-10-18T09:02:53.261Z,100922.25
2022-10-18T09:05:39.978Z,100920.13
2022-10-18T09:08:39.290Z,100926.31
2022-10-18T09:11:27.554Z,100919.09
2022-10-18T09:14:32.468Z,100915.47
2022-10-18T09:17:16.237Z,100918.47
2022-10-18T09:22:42.193Z,100899.19
2022-10-18T09:25:19.624Z,100893.13
2022-10-18T09:28:23.871Z,100883.38
2022-10-18T09:31:03.393Z,100871.88
2022-10-18T09:33:46.877Z,100871.50
2022-10-18T09:36:21.875Z,100869.06
2022-10-18T09:38:52.723Z,100869.41
2022-10-18T09:41:30.331Z,100869.94
2022-10-18T09:44:03.708Z,100856.75
2022-10-18T09:46:39.254Z,100861.34
2022-10-18T09:49:16.546Z,100860.38
2022-10-18T09:51:45.609Z,100857.78
2022-10-18T09:55:05.500Z,100854.59
2022-10-18T09:57:52.508Z,100846.34
2022-10-18T10:00:25.802Z,100841.97
2022-10-18T10:02:53.549Z,100841.81
2022-10-18T10:05:20.488Z,100846.50
2022-10-18T10:07:49.274Z,100839.38
2022-10-18T10:10:25.404Z,100830.72
2022-10-18T10:13:22.996Z,100824.41
2022-10-18T10:16:08.460Z,100819.19
2022-10-18T10:18:39.090Z,100819.72
2022-10-18T10:21:13.149Z,100812.28
2022-10-18T10:23:47.001Z,100809.91
2022-10-18T10:26:24.683Z,100810.19
2022-10-18T10:28:51.895Z,100792.88
2022-10-18T10:31:24.132Z,100792.81
2022-10-18T10:34:12.623Z,100782.25
2022-10-18T10:36:48.890Z,100787.97
2022-10-18T10:39:19.036Z,100798.31
2022-10-18T10:41:51.974Z,100801.41
2022-10-18T10:44:24.530Z,100790.06
2022-10-18T10:46:52.159Z,100784.81
2022-10-18T10:52:27.345Z,100784.28
2022-10-18T10:55:05.690Z,100778.56
2022-10-18T10:57:38.740Z,100781.78
2022-10-18T11:00:05.749Z,100772.22
2022-10-18T11:02:34.980Z,100768.34
2022-10-18T11:05:20.501Z,100758.19
2022-10-18T11:07:47.684Z,100754.84
2022-10-18T11:10:19.684Z,100758.84
2022-10-18T11:12:56.336Z,100765.19
2022-10-18T11:15:36.960Z,100763.69
2022-10-18T11:18:18.596Z,100759.19
2022-10-18T11:20:50.977Z,100746.66
2022-10-18T11:23:18.501Z,100749.78
2022-10-18T11:26:08.694Z,100750.97
2022-10-18T11:29:12.675Z,100746.22
2022-10-18T11:32:08.181Z,100744.47
2022-10-18T11:34:49.662Z,100737.84
2022-10-18T11:37:34.724Z,100728.00
2022-10-18T11:40:28.635Z,100722.31
2022-10-18T11:43:57.133Z,100717.06
2022-10-18T11:46:33.966Z,100695.41
2022-10-18T11:49:28.730Z,100683.47
2022-10-18T11:52:18.604Z,100682.78
2022-10-18T11:55:10.091Z,100677.97
2022-10-18T11:58:20.366Z,100681.16
2022-10-18T12:00:56.438Z,100676.47
2022-10-18T12:03:33.869Z,100676.34
2022-10-18T12:06:06.606Z,100672.25
2022-10-18T12:08:44.946Z,100651.78
2022-10-18T12:11:47.167Z,100653.84
2022-10-18T12:14:24.277Z,100660.00
2022-10-18T12:17:07.798Z,100660.56
2022-10-18T12:19:40.564Z,100652.03
2022-10-18T12:22:28.412Z,100639.97
2022-10-18T12:24:54.982Z,100632.03
2022-10-18T12:27:40.471Z,100626.91
2022-10-18T12:30:15.729Z,100614.72
2022-10-18T12:32:56.394Z,100609.97
2022-10-18T12:35:35.212Z,100617.28
2022-10-18T12:38:12.403Z,100619.63
2022-10-18T12:40:43.551Z,100625.78
2022-10-18T12:43:18.266Z,100613.03
2022-10-18T12:45:54.911Z,100612.25
2022-10-18T12:48:42.776Z,100608.94
2022-10-18T12:51:18.910Z,100605.63
2022-10-18T12:53:49.148Z,100612.88
2022-10-18T12:56:27.927Z,100604.09
2022-10-18T12:59:16.262Z,100591.75
2022-10-18T13:01:54.845Z,100591.50
2022-10-18T13:04:39.832Z,100585.00
2022-10-18T13:07:08.054Z,100574.97
2022-10-18T13:09:44.626Z,100580.88
2022-10-18T13:12:11.184Z,100577.59
2022-10-18T13:15:12.749Z,100578.34
2022-10-18T13:18:05.118Z,100585.75
2022-10-18T13:20:44.177Z,100581.88
2022-10-18T13:23:42.615Z,100581.69
2022-10-18T13:26:40.069Z,100574.38
2022-10-18T13:29:24.715Z,100575.84
2022-10-18T13:31:55.581Z,100576.06
2022-10-18T13:34:25.218Z,100576.03
2022-10-18T13:37:01.236Z,100581.56
2022-10-18T13:39:29.227Z,100586.78
2022-10-18T13:41:59.962Z,100576.19
2022-10-18T13:44:40.456Z,100575.69
2022-10-18T13:47:07.172Z,100575.56
2022-10-18T13:49:39.713Z,100585.50
2022-10-18T13:52:15.022Z,100588.09
2022-10-18T13:55:19.831Z,100585.97
2022-10-18T13:58:02.943Z,100610.28
2022-10-18T14:00:54.180Z,100616.63
2022-10-18T14:03:55.729Z,100623.09
2022-10-18T14:06:38.839Z,100627.94
2022-10-18T14:09:25.477Z,100637.56
2022-10-18T14:12:14.671Z,100644.03
2022-10-18T14:14:45.519Z,100640.69
2022-10-18T14:17:35.474Z,100644.84
2022-10-18T14:20:15.146Z,100627.63
2022-10-18T14:23:02.762Z,100643.94
2022-10-18T14:25:33.189Z,100646.34
2022-10-18T14:28:14.655Z,100653.59
2022-10-18T14:31:06.577Z,100655.88
2022-10-18T14:33:33.166Z,100650.19
2022-10-18T14:36:06.715Z,100666.22
2022-10-18T14:38:44.580Z,100672.91
2022-10-18T14:41:37.679Z,100681.53
2022-10-18T14:44:16.480Z,100673.09
2022-10-18T14:46:43.928Z,100686.72
2022-10-18T14:49:12.558Z,100685.28
2022-10-18T14:51:42.535Z,100708.47
2022-10-18T14:54:18.659Z,100704.31
2022-10-18T14:56:49.090Z,100711.66
2022-10-18T14:59:27.806Z,100717.06
2022-10-18T15:02:03.266Z,100720.78
2022-10-18T15:04:33.432Z,100716.66
2022-10-18T15:07:05.646Z,100698.16
2022-10-18T15:09:34.895Z,100707.97
2022-10-18T15:12:05.806Z,100722.09
2022-10-18T15:14:32.992Z,100725.69
2022-10-18T15:17:03.755Z,100730.97
2022-10-18T15:19:33.789Z,100723.03
2022-10-18T15:22:30.691Z,100730.16
2022-10-18T15:25:19.979Z,100734.59
2022-10-18T15:27:49.443Z,100729.34
2022-10-18T15:30:36.332Z,100735.53
2022-10-18T15:33:05.393Z,100739.94
2022-10-18T15:35:34.858Z,100733.81
2022-10-18T15:38:26.030Z,100750.63
2022-10-18T15:40:53.585Z,100754.19
2022-10-18T15:43:23.425Z,100758.63
2022-10-18T15:46:06.524Z,100769.22
2022-10-18T15:48:39.173Z,100778.91
2022-10-18T15:51:32.433Z,100778.91
2022-10-18T15:53:59.102Z,100758.63
2022-10-18T15:56:37.470Z,100761.28
2022-10-18T15:59:21.007Z,100759.53
2022-10-18T16:01:47.893Z,100753.34
2022-10-18T16:04:26.709Z,100757.78
2022-10-18T16:06:55.584Z,100758.69
2022-10-18T16:09:27.231Z,100761.34
2022-10-18T16:11:56.984Z,100759.56
2022-10-18T16:14:26.017Z,100762.19
2022-10-18T16:16:56.878Z,100774.56
2022-10-18T16:19:23.517Z,100786.91
2022-10-18T16:21:52.654Z,100794.84
2022-10-18T16:24:21.427Z,100793.09
2022-10-18T16:26:48.930Z,100799.25
2022-10-18T16:29:24.469Z,100800.16
2022-10-18T16:31:53.624Z,100806.31
2022-10-18T16:34:20.311Z,100816.03
2022-10-18T16:36:46.941Z,100810.72
2022-10-18T16:39:18.691Z,100817.78
2022-10-18T16:41:45.861Z,100818.69
2022-10-18T16:44:14.219Z,100824.81
2022-10-18T16:46:42.332Z,100822.19
2022-10-18T16:51:46.793Z,100822.19
2022-10-18T16:54:13.489Z,100826.63
2022-10-18T16:56:40.733Z,100828.38
2022-10-18T16:59:27.259Z,100829.25
2022-10-18T17:01:53.837Z,100833.66
2022-10-18T17:04:20.406Z,100829.25
2022-10-18T17:06:49.078Z,100834.56
2022-10-18T17:09:16.192Z,100845.16
2022-10-18T17:11:43.225Z,100845.16
2022-10-18T17:14:10.179Z,100846.03
2022-10-18T17:16:39.083Z,100846.91
2022-10-18T17:19:08.151Z,100855.75
2022-10-18T17:21:36.201Z,100855.75
2022-10-18T17:24:04.514Z,100861.94
2022-10-18T17:26:31.343Z,100866.31
2022-10-18T17:29:03.159Z,100867.22
2022-10-18T17:31:31.412Z,100860.19
2022-10-18T17:34:01.237Z,100870.75
2022-10-18T17:36:28.720Z,100874.28
2022-10-18T17:38:55.498Z,100880.47
2022-10-18T17:41:23.734Z,100886.66
2022-10-18T17:43:50.434Z,100897.22
2022-10-18T17:46:19.163Z,100898.09
2022-10-18T17:48:45.955Z,100906.03
2022-10-18T17:51:15.113Z,100887.53
2022-10-18T17:53:41.814Z,100898.97
2022-10-18T17:56:10.191Z,100891.94
2022-10-18T17:58:36.868Z,100886.66
2022-10-18T18:01:13.979Z,100899.88
2022-10-18T18:03:42.184Z,100890.19
2022-10-18T18:06:13.761Z,100886.66
2022-10-18T18:08:40.376Z,100890.19
2022-10-18T18:11:07.310Z,100891.94
2022-10-18T18:13:33.966Z,100898.13
2022-10-18T18:16:10.833Z,100891.97
2022-10-18T18:18:37.634Z,100896.34
2022-10-18T18:21:04.291Z,100886.66
2022-10-18T18:23:31.092Z,100880.47
2022-10-18T18:25:58.333Z,100876.06
2022-10-18T18:28:25.002Z,100878.72
2022-10-18T18:30:51.717Z,100879.63
2022-10-18T18:33:18.343Z,100883.13
2022-10-18T18:35:54.653Z,100897.25
2022-10-18T18:38:21.281Z,100900.78
2022-10-18T18:40:47.874Z,100893.72
2022-10-18T18:43:29.166Z,100895.50
2022-10-18T18:45:56.104Z,100894.59
2022-10-18T18:48:22.734Z,100893.69
2022-10-18T18:50:51.325Z,100896.34
2022-10-18T18:53:18.949Z,100891.94
2022-10-18T18:55:45.772Z,100899.00
2022-10-18T18:58:12.644Z,100891.06
2022-10-18T19:00:43.429Z,100888.41
2022-10-18T19:03:12.348Z,100884.91
2022-10-18T19:05:39.174Z,100888.41
2022-10-18T19:08:06.359Z,100894.59
2022-10-18T19:10:32.989Z,100891.94
2022-10-18T19:12:59.877Z,100891.94
2022-10-18T19:15:26.644Z,100891.06
2022-10-18T19:17:53.256Z,100890.19
2022-10-18T19:20:21.188Z,100894.59
2022-10-18T19:22:47.767Z,100890.16
2022-10-18T19:25:14.486Z,100884.88
2022-10-18T19:27:41.123Z,100889.31
2022-10-18T19:30:09.474Z,100891.06
2022-10-18T19:32:36.366Z,100890.16
2022-10-18T19:35:03.610Z,100888.41
2022-10-18T19:37:30.290Z,100891.06
2022-10-18T19:39:56.970Z,100889.31
2022-10-18T19:42:27.550Z,100885.78
2022-10-18T19:44:57.218Z,100893.72
2022-10-18T19:47:23.837Z,100895.50
2022-10-18T19:49:50.432Z,100895.50
2022-10-18T19:52:17.112Z,100879.63
2022-10-18T19:54:45.099Z,100884.91
2022-10-18T19:57:11.850Z,100890.19
2022-10-18T20:02:25.892Z,100884.00
2022-10-18T20:04:52.473Z,100884.91
2022-10-18T20:07:19.060Z,100881.38
2022-10-18T20:09:47.309Z,100882.25
2022-10-18T20:12:13.905Z,100885.78
2022-10-18T20:14:40.479Z,100890.19
2022-10-18T20:17:07.174Z,100889.31
2022-10-18T20:19:33.864Z,100890.19
2022-10-18T20:22:00.468Z,100887.56
2022-10-18T20:24:27.238Z,100889.31
2022-10-18T20:26:54.033Z,100888.41
2022-10-18T20:29:25.237Z,100892.84
2022-10-18T20:31:55.561Z,100880.47
2022-10-18T20:34:25.963Z,100882.25
2022-10-18T20:36:56.024Z,100887.56
2022-10-18T20:39:23.017Z,100888.44
2022-10-18T20:41:49.966Z,100887.56
2022-10-18T20:44:19.443Z,100887.56
2022-10-18T20:46:46.178Z,100891.94
2022-10-18T20:49:15.235Z,100884.91
2022-10-18T20:51:42.210Z,100896.34
2022-10-18T20:54:09.712Z,100887.53
2022-10-18T20:56:38.804Z,100888.41
2022-10-18T20:59:09.726Z,100887.53
2022-10-18T21:01:38.773Z,100888.41
2022-10-18T21:04:07.553Z,100890.19
2022-10-18T21:06:42.882Z,100891.06
2022-10-18T21:09:12.838Z,100896.38
2022-10-18T21:11:41.516Z,100895.47
2022-10-18T21:14:13.391Z,100895.47
2022-10-18T21:16:40.503Z,100890.19
2022-10-18T21:19:12.958Z,100884.88
2022-10-18T21:21:41.563Z,100886.63
2022-10-18T21:24:08.426Z,100887.53
2022-10-18T21:26:35.766Z,100898.13
2022-10-18T21:29:03.165Z,100895.47
2022-10-18T21:31:36.416Z,100893.69
2022-10-18T21:34:06.129Z,100880.47
2022-10-18T21:36:35.685Z,100878.69
2022-10-18T21:39:04.595Z,100881.34
2022-10-18T21:41:33.916Z,100884.00
2022-10-18T21:44:03.517Z,100884.00
2022-10-18T21:46:32.962Z,100878.69
2022-10-18T21:48:59.604Z,100879.59
2022-10-18T21:51:28.525Z,100884.00
2022-10-18T21:53:57.809Z,100878.69
2022-10-18T21:56:27.149Z,100877.84
2022-10-18T21:58:54.568Z,100877.84
2022-10-18T22:01:33.969Z,100880.47
2022-10-18T22:04:03.324Z,100869.00
2022-10-18T22:06:32.857Z,100870.75
2022-10-18T22:09:02.269Z,100873.41
2022-10-18T22:11:39.731Z,100868.09
2022-10-18T22:14:06.852Z,100867.25
2022-10-18T22:16:33.810Z,100862.84
2022-10-18T22:19:02.232Z,100866.34
2022-10-18T22:21:29.579Z,100867.25
2022-10-18T22:23:57.773Z,100878.72
2022-10-18T22:26:29.617Z,100875.19
2022-10-18T22:29:08.195Z,100870.78
2022-10-18T22:31:36.850Z,100868.13
2022-10-18T22:34:06.423Z,100868.13
2022-10-18T22:36:34.480Z,100867.25
2022-10-18T22:39:01.603Z,100861.97
2022-10-18T22:41:28.550Z,100863.75
2022-10-18T22:43:57.300Z,100869.03
2022-10-18T22:46:26.560Z,100869.91
2022-10-18T22:48:53.483Z,100864.63
2022-10-18T22:51:21.335Z,100863.75
2022-10-18T22:53:48.152Z,100862.84
2022-10-18T22:56:20.868Z,100874.28
2022-10-18T22:58:48.334Z,100870.72
2022-10-18T23:01:17.889Z,100876.94
2022-10-18T23:03:44.661Z,100863.72
2022-10-18T23:06:23.976Z,100865.44
2022-10-18T23:08:51.487Z,100869.88
2022-10-18T23:11:19.053Z,100865.47
2022-10-18T23:13:46.131Z,100859.28
2022-10-18T23:16:13.282Z,100861.94
2022-10-18T23:19:38.907Z,100858.41
2022-10-18T23:22:05.633Z,100851.34
2022-10-18T23:24:32.229Z,100854.84
2022-10-18T23:26:58.947Z,100855.75
2022-10-18T23:29:25.617Z,100853.97
2022-10-18T23:31:52.285Z,100842.53
2022-10-18T23:34:18.845Z,100853.03
2022-10-18T23:36:45.435Z,100843.34
2022-10-18T23:39:12.147Z,100849.47
2022-10-18T23:41:38.764Z,100838.88
2022-10-18T23:44:05.578Z,100838.84
2022-10-18T23:46:32.242Z,100844.94
2022-10-18T23:48:58.844Z,100843.16
2022-10-18T23:51:25.449Z,100841.31
2022-10-18T23:53:52.105Z,100845.72
2022-10-18T23:56:18.847Z,100850.06
2022-10-18T23:58:45.550Z,100847.34
